createdAt,value
2022-12-16T00:00:10.315Z,82.43
2022-12-16T00:03:01.967Z,85.33
2022-12-16T00:05:29.784Z,85.90
2022-12-16T00:07:57.740Z,86.80
2022-12-16T00:10:25.526Z,80.93
2022-12-16T00:12:53.708Z,84.87
2022-12-16T00:15:22.760Z,86.93
2022-12-16T00:17:50.606Z,85.30
2022-12-16T00:20:22.086Z,80.27
2022-12-16T00:22:50.071Z,83.93
2022-12-16T00:25:20.048Z,77.80
2022-12-16T00:27:48.339Z,83.30
2022-12-16T00:30:15.792Z,85.70
2022-12-16T00:32:43.674Z,84.10
2022-12-16T00:35:10.995Z,86.77
2022-12-16T00:37:38.612Z,88.83
2022-12-16T00:40:06.799Z,85.37
2022-12-16T00:42:35.181Z,87.47
2022-12-16T00:45:03.178Z,89.80
2022-12-16T00:47:31.561Z,92.57
2022-12-16T00:49:59.245Z,93.30
2022-12-16T00:52:26.936Z,91.93
2022-12-16T00:54:54.660Z,88.47
2022-12-16T00:57:23.242Z,94.40
2022-12-16T00:59:51.143Z,95.60
2022-12-16T01:02:19.316Z,94.37
2022-12-16T01:04:47.392Z,92.87
2022-12-16T01:07:15.699Z,94.13
2022-12-16T01:09:44.318Z,93.80
2022-12-16T01:12:12.402Z,93.13
2022-12-16T01:14:40.112Z,97.37
2022-12-16T01:17:08.531Z,91.70
2022-12-16T01:19:36.213Z,94.50
2022-12-16T01:22:04.878Z,90.63
2022-12-16T01:24:32.660Z,91.40
2022-12-16T01:27:00.586Z,94.73
2022-12-16T01:29:28.232Z,95.37
2022-12-16T01:31:56.073Z,91.40
2022-12-16T01:34:26.630Z,92.23
2022-12-16T01:36:58.393Z,92.83
2022-12-16T01:39:27.754Z,90.53
2022-12-16T01:41:55.751Z,93.90
2022-12-16T01:44:25.804Z,91.43
2022-12-16T01:47:04.516Z,90.07
2022-12-16T01:49:39.584Z,85.87
2022-12-16T01:52:12.592Z,89.33
2022-12-16T01:54:49.155Z,89.40
2022-12-16T01:57:26.618Z,84.00
2022-12-16T01:59:55.966Z,85.50
2022-12-16T02:02:24.342Z,83.87
2022-12-16T02:05:11.087Z,87.63
2022-12-16T02:07:38.940Z,87.73
2022-12-16T02:10:06.803Z,88.03
2022-12-16T02:13:03.370Z,88.07
2022-12-16T02:15:31.048Z,87.90
2022-12-16T02:18:07.340Z,83.37
2022-12-16T02:20:35.192Z,84.37
2022-12-16T02:23:32.674Z,87.30
2022-12-16T02:26:37.184Z,86.67
2022-12-16T02:29:35.644Z,87.80
2022-12-16T02:32:22.781Z,84.07
2022-12-16T02:35:08.975Z,81.93
2022-12-16T02:37:51.247Z,83.73
2022-12-16T02:40:33.228Z,82.17
2022-12-16T02:43:17.843Z,81.37
2022-12-16T02:45:46.805Z,81.53
2022-12-16T02:48:14.568Z,86.93
2022-12-16T02:50:53.352Z,87.10
2022-12-16T02:53:21.987Z,85.63
2022-12-16T02:56:19.397Z,89.63
2022-12-16T02:59:11.669Z,87.30
2022-12-16T03:02:12.764Z,89.37
2022-12-16T03:05:08.350Z,92.30
2022-12-16T03:07:40.283Z,89.80
2022-12-16T03:10:11.931Z,91.17
2022-12-16T03:12:42.741Z,86.13
2022-12-16T03:15:11.989Z,88.10
2022-12-16T03:17:40.373Z,88.60
2022-12-16T03:20:12.813Z,90.10
2022-12-16T03:22:44.900Z,91.27
2022-12-16T03:25:12.781Z,91.73
2022-12-16T03:28:14.455Z,94.43
2022-12-16T03:30:50.306Z,92.00
2022-12-16T03:33:42.301Z,94.70
2022-12-16T03:36:22.593Z,93.80
2022-12-16T03:38:52.086Z,87.53
2022-12-16T03:41:22.344Z,91.30
2022-12-16T03:43:50.782Z,88.30
2022-12-16T03:46:19.400Z,89.13
2022-12-16T03:48:49.633Z,86.57
2022-12-16T03:51:17.909Z,85.30
2022-12-16T03:53:46.974Z,84.80
2022-12-16T03:56:15.153Z,83.43
2022-12-16T03:58:43.563Z,84.10
2022-12-16T04:01:11.670Z,87.10
2022-12-16T04:03:40.087Z,85.63
2022-12-16T04:06:08.400Z,83.57
2022-12-16T04:08:36.777Z,82.50
2022-12-16T04:11:23.026Z,85.13
2022-12-16T04:14:09.944Z,86.50
2022-12-16T04:16:56.446Z,82.10
2022-12-16T04:19:45.987Z,79.57
2022-12-16T04:22:41.503Z,85.50
2022-12-16T04:25:16.940Z,80.20
2022-12-16T04:27:47.597Z,86.43
2022-12-16T04:30:21.153Z,87.03
2022-12-16T04:33:15.870Z,81.13
2022-12-16T04:36:02.347Z,65.73
2022-12-16T04:38:48.844Z,85.03
2022-12-16T04:41:35.427Z,85.37
2022-12-16T04:44:22.228Z,85.20
2022-12-16T04:47:09.190Z,88.20
2022-12-16T04:49:55.449Z,89.40
2022-12-16T04:52:41.927Z,89.53
2022-12-16T04:55:28.761Z,91.60
2022-12-16T04:58:17.410Z,88.67
2022-12-16T05:01:04.641Z,87.30
2022-12-16T05:03:51.679Z,87.83
2022-12-16T05:06:38.626Z,87.47
2022-12-16T05:09:25.866Z,85.93
2022-12-16T05:12:12.413Z,86.00
2022-12-16T05:14:58.977Z,85.90
2022-12-16T05:17:45.384Z,84.93
2022-12-16T05:20:32.079Z,88.27
2022-12-16T05:23:18.568Z,89.93
2022-12-16T05:26:05.001Z,90.13
2022-12-16T05:28:51.365Z,89.60
2022-12-16T05:31:38.054Z,89.40
2022-12-16T05:34:24.179Z,88.07
2022-12-16T05:37:10.940Z,88.20
2022-12-16T05:39:57.550Z,84.77
2022-12-16T05:42:44.296Z,85.07
2022-12-16T05:45:30.504Z,68.90
2022-12-16T05:48:17.229Z,86.80
2022-12-16T05:51:23.294Z,85.00
2022-12-16T05:54:09.362Z,87.73
2022-12-16T05:56:55.416Z,84.67
2022-12-16T05:59:42.438Z,84.80
2022-12-16T06:02:28.709Z,87.87
2022-12-16T06:05:15.536Z,89.07
2022-12-16T06:08:02.021Z,80.50
2022-12-16T06:10:48.763Z,90.90
2022-12-16T06:13:35.120Z,93.23
2022-12-16T06:16:38.633Z,91.37
2022-12-16T06:19:24.852Z,85.13
2022-12-16T06:22:12.048Z,91.53
2022-12-16T06:24:58.995Z,94.17
2022-12-16T06:27:45.485Z,88.20
2022-12-16T06:30:31.793Z,93.83
2022-12-16T06:33:18.532Z,89.70
2022-12-16T06:36:04.856Z,70.83
2022-12-16T06:38:51.282Z,94.10
2022-12-16T06:41:37.341Z,104.67
2022-12-16T06:44:23.853Z,108.97
2022-12-16T06:47:10.117Z,125.83
2022-12-16T06:50:01.326Z,135.00
2022-12-16T06:52:47.476Z,146.80
2022-12-16T06:55:33.760Z,165.97
2022-12-16T06:58:20.243Z,201.13
2022-12-16T07:01:06.898Z,224.17
2022-12-16T07:03:53.084Z,222.10
2022-12-16T07:06:39.741Z,221.90
2022-12-16T07:09:25.680Z,218.13
2022-12-16T07:12:12.117Z,223.23
2022-12-16T07:14:58.383Z,175.10
2022-12-16T10:24:12.740Z,121.93
2022-12-16T10:26:59.688Z,119.07
2022-12-16T10:30:09.027Z,103.23
2022-12-16T10:33:09.617Z,129.17
2022-12-16T10:35:56.702Z,132.60
2022-12-16T10:38:59.750Z,321.13
2022-12-16T10:41:51.534Z,326.70
2022-12-16T10:45:12.243Z,431.60
2022-12-16T10:47:58.726Z,198.20
2022-12-16T10:50:44.817Z,198.97
2022-12-16T10:53:35.052Z,175.07
2022-12-16T10:57:08.709Z,207.50
2022-12-16T10:59:59.910Z,102.30
2022-12-16T11:02:47.612Z,194.07
2022-12-16T11:05:52.254Z,276.70
2022-12-16T11:08:46.977Z,96.40
2022-12-16T11:11:40.823Z,140.73
2022-12-16T11:14:42.100Z,97.27
2022-12-16T11:17:43.294Z,122.87
2022-12-16T11:20:40.085Z,100.00
2022-12-16T11:23:43.300Z,97.97
2022-12-16T11:26:36.729Z,104.73
2022-12-16T11:29:37.264Z,109.10
2022-12-16T11:32:45.003Z,106.83
2022-12-16T11:35:34.378Z,120.20
2022-12-16T11:38:24.236Z,105.83
2022-12-16T11:41:34.548Z,119.80
2022-12-16T11:44:24.091Z,133.53
2022-12-16T11:47:10.653Z,130.50
2022-12-16T11:49:56.867Z,110.40
2022-12-16T11:52:42.576Z,109.03
2022-12-16T11:59:07.339Z,135.53
2022-12-16T12:02:01.625Z,138.00
2022-12-16T12:04:48.417Z,101.67
2022-12-16T12:07:45.850Z,249.23
2022-12-16T12:11:09.127Z,98.30
2022-12-16T12:14:28.034Z,128.90
2022-12-16T12:17:27.395Z,105.77
2022-12-16T12:20:22.004Z,99.70
2022-12-16T12:23:07.799Z,117.23
2022-12-16T12:25:55.277Z,111.37
2022-12-16T12:28:57.095Z,101.77
2022-12-16T12:32:04.982Z,97.30
2022-12-16T12:35:01.887Z,131.73
2022-12-16T12:37:55.325Z,107.20
2022-12-16T12:41:20.051Z,112.53
2022-12-16T12:44:48.277Z,109.30
2022-12-16T12:47:36.245Z,104.47
2022-12-16T12:50:24.422Z,101.97
2022-12-16T12:53:41.210Z,102.93
2022-12-16T12:56:33.461Z,131.67
2022-12-16T13:00:04.120Z,117.03
2022-12-16T13:03:01.674Z,108.77
2022-12-16T13:05:52.531Z,108.67
2022-12-16T13:09:14.703Z,122.03
2022-12-16T13:12:25.827Z,121.70
2022-12-16T13:15:14.186Z,98.87
2022-12-16T13:18:23.630Z,140.37
2022-12-16T13:21:12.922Z,103.17
2022-12-16T13:24:01.875Z,162.80
2022-12-16T13:26:51.186Z,101.67
2022-12-16T13:29:44.362Z,101.90
2022-12-16T13:32:43.380Z,94.23
2022-12-16T13:35:29.626Z,102.07
2022-12-16T13:38:35.979Z,112.50
2022-12-16T13:41:24.571Z,104.43
2022-12-16T13:44:17.471Z,116.57
2022-12-16T13:47:05.874Z,138.70
2022-12-16T13:49:55.284Z,94.07
2022-12-16T13:52:56.726Z,95.17
2022-12-16T13:55:51.488Z,95.50
2022-12-16T13:58:49.412Z,94.27
2022-12-16T14:01:41.737Z,93.57
2022-12-16T14:04:38.796Z,109.23
2022-12-16T14:07:25.231Z,103.97
2022-12-16T14:10:12.842Z,93.03
2022-12-16T14:13:07.233Z,108.17
2022-12-16T14:16:13.169Z,150.03
2022-12-16T14:19:16.510Z,126.47
2022-12-16T14:22:31.775Z,116.20
2022-12-16T14:25:36.513Z,103.37
2022-12-16T14:28:37.610Z,102.80
2022-12-16T14:32:00.012Z,193.20
2022-12-16T14:34:51.430Z,112.37
2022-12-16T14:37:54.593Z,117.77
2022-12-16T14:40:49.647Z,122.13
2022-12-16T14:43:42.252Z,128.90
2022-12-16T14:46:49.139Z,145.63
2022-12-16T14:49:42.976Z,123.67
2022-12-16T14:52:41.104Z,106.97
2022-12-16T14:55:32.235Z,133.33
2022-12-16T14:58:23.714Z,115.37
2022-12-16T15:01:15.515Z,100.67
2022-12-16T15:04:09.223Z,101.27
2022-12-16T17:22:46.091Z,81.53
2022-12-16T17:25:36.013Z,90.30
2022-12-16T17:28:22.733Z,94.20
2022-12-16T17:31:09.231Z,203.93
2022-12-16T17:33:55.563Z,136.93
2022-12-16T17:36:42.544Z,154.07
2022-12-16T17:39:29.414Z,143.97
2022-12-16T17:42:16.343Z,114.00
2022-12-16T17:45:02.535Z,90.93
2022-12-16T17:47:49.547Z,86.73
2022-12-16T17:50:36.208Z,101.00
2022-12-16T17:53:23.426Z,91.70
2022-12-16T17:56:09.844Z,98.63
2022-12-16T17:58:57.504Z,95.00
2022-12-16T18:01:44.458Z,90.00
2022-12-16T18:04:31.193Z,93.03
2022-12-16T18:07:17.835Z,88.53
2022-12-16T18:10:04.626Z,93.17
2022-12-16T18:12:51.649Z,88.17
2022-12-16T18:15:38.272Z,87.00
2022-12-16T18:18:24.367Z,87.50
2022-12-16T18:21:10.709Z,86.20
2022-12-16T18:23:56.820Z,152.40
2022-12-16T18:26:43.549Z,115.70
2022-12-16T18:29:29.639Z,93.43
2022-12-16T18:32:16.284Z,194.23
2022-12-16T18:35:02.491Z,110.73
2022-12-16T18:37:49.098Z,89.53
2022-12-16T18:40:38.937Z,98.23
2022-12-16T18:43:25.860Z,91.03
2022-12-16T18:46:32.535Z,88.70
2022-12-16T18:49:19.191Z,79.57
2022-12-16T18:52:05.991Z,88.87
2022-12-16T18:54:52.640Z,78.93
2022-12-16T18:57:41.411Z,99.83
2022-12-16T19:00:28.290Z,134.47
2022-12-16T19:03:14.800Z,93.90
2022-12-16T19:06:01.305Z,193.37
2022-12-16T19:08:48.679Z,128.07
2022-12-16T19:11:35.484Z,98.60
2022-12-16T19:14:21.652Z,92.43
2022-12-16T19:17:08.466Z,88.63
2022-12-16T19:19:54.689Z,92.87
2022-12-16T19:22:43.474Z,92.43
2022-12-16T19:25:50.092Z,100.13
2022-12-16T19:28:37.290Z,87.90
2022-12-16T19:31:28.132Z,85.67
2022-12-16T19:34:18.323Z,84.07
2022-12-16T19:37:04.602Z,95.30
2022-12-16T19:39:52.302Z,87.03
2022-12-16T19:42:38.877Z,79.43
2022-12-16T19:45:26.015Z,79.00
2022-12-16T19:48:19.819Z,83.97
2022-12-16T19:51:06.403Z,81.47
2022-12-16T19:53:52.703Z,79.10
2022-12-16T19:56:43.126Z,80.90
2022-12-16T19:59:29.474Z,80.90
2022-12-16T20:02:16.443Z,73.90
2022-12-16T20:05:02.850Z,73.63
2022-12-16T20:07:49.898Z,89.83
2022-12-16T20:10:36.668Z,73.00
2022-12-16T20:13:30.490Z,66.83
2022-12-16T20:16:24.600Z,72.77
2022-12-16T20:19:11.535Z,73.93
2022-12-16T20:22:00.700Z,73.30
2022-12-16T20:24:51.822Z,69.73
2022-12-16T20:27:38.279Z,71.00
2022-12-16T20:30:25.232Z,79.13
2022-12-16T20:33:11.442Z,66.97
2022-12-16T20:35:58.325Z,69.17
2022-12-16T20:38:45.579Z,91.13
2022-12-16T20:41:32.715Z,70.07
2022-12-16T20:44:19.338Z,70.83
2022-12-16T20:47:06.811Z,73.03
2022-12-16T20:49:54.997Z,65.60
2022-12-16T20:52:43.135Z,73.43
2022-12-16T20:55:30.024Z,66.83
2022-12-16T20:58:17.534Z,68.47
2022-12-16T21:01:04.658Z,67.07
2022-12-16T21:03:56.805Z,71.70
2022-12-16T21:06:44.132Z,64.97
2022-12-16T21:09:32.519Z,66.43
2022-12-16T21:12:19.232Z,62.67
2022-12-16T21:15:07.393Z,57.93
2022-12-16T21:17:55.394Z,56.97
2022-12-16T21:20:44.233Z,50.57
2022-12-16T21:23:31.110Z,70.47
2022-12-16T21:26:18.497Z,54.17
2022-12-16T21:29:05.960Z,50.00
2022-12-16T21:31:53.522Z,52.03
2022-12-16T21:34:40.129Z,51.73
2022-12-16T21:37:31.463Z,52.73
2022-12-16T21:40:18.093Z,52.10
2022-12-16T21:43:04.810Z,51.37
2022-12-16T21:46:08.565Z,53.97
2022-12-16T21:48:56.168Z,53.73
2022-12-16T21:51:42.947Z,49.07
2022-12-16T21:54:29.607Z,53.50
2022-12-16T21:57:15.962Z,50.13
2022-12-16T22:00:02.743Z,50.30
2022-12-16T22:02:57.589Z,53.43
2022-12-16T22:05:44.302Z,52.33
2022-12-16T22:08:31.121Z,53.67
2022-12-16T22:11:17.825Z,51.90
2022-12-16T22:14:04.211Z,53.67
2022-12-16T22:16:51.114Z,53.23
2022-12-16T22:19:38.406Z,52.27
2022-12-16T22:22:24.976Z,56.93
2022-12-16T22:25:14.341Z,50.10
2022-12-16T22:28:01.113Z,50.10
2022-12-16T22:30:48.136Z,49.33
2022-12-16T22:33:34.866Z,49.97
2022-12-16T22:36:22.409Z,52.37
2022-12-16T22:39:09.214Z,51.27
2022-12-16T22:41:56.729Z,59.77
2022-12-16T22:44:43.475Z,53.03
2022-12-16T22:47:29.834Z,53.53
2022-12-16T22:50:16.578Z,52.70
2022-12-16T22:53:03.070Z,53.00
2022-12-16T22:55:49.699Z,51.37
2022-12-16T22:58:36.169Z,52.13
2022-12-16T23:01:26.105Z,50.63
2022-12-16T23:04:12.268Z,53.90
2022-12-16T23:07:00.314Z,52.20
2022-12-16T23:09:46.822Z,52.37
2022-12-16T23:12:34.038Z,49.83
2022-12-16T23:15:20.573Z,50.60
2022-12-16T23:18:06.901Z,88.90
2022-12-16T23:20:53.092Z,52.43
2022-12-16T23:23:43.496Z,49.30
2022-12-16T23:26:29.821Z,49.50
2022-12-16T23:29:16.788Z,45.87
2022-12-16T23:32:03.789Z,46.87
2022-12-16T23:34:51.254Z,47.50
2022-12-16T23:37:38.993Z,48.73
2022-12-16T23:40:26.054Z,50.17
2022-12-16T23:43:12.911Z,49.40
2022-12-16T23:45:59.809Z,48.03
2022-12-16T23:48:46.427Z,52.17
2022-12-16T23:51:33.035Z,51.30
2022-12-16T23:54:19.268Z,47.60
2022-12-16T23:57:06.024Z,45.30
2022-12-16T23:59:52.702Z,45.57
